sensor_id;sensor_type;location;lat;lon;timestamp;temperature;humidity
30174;DHT22;16985;50.814;8.530;2023-07-29T00:02:18;17.90;99.90
30174;DHT22;16985;50.814;8.530;2023-07-29T00:04:44;17.90;99.90
30174;DHT22;16985;50.814;8.530;2023-07-29T00:07:09;17.90;99.90
30174;DHT22;16985;50.814;8.530;2023-07-29T00:09:35;17.90;99.90
30174;DHT22;16985;50.814;8.530;2023-07-29T00:12:01;17.90;99.90
30174;DHT22;16985;50.814;8.530;2023-07-29T00:14:27;17.90;99.90
30174;DHT22;16985;50.814;8.530;2023-07-29T00:16:53;17.90;99.90
30174;DHT22;16985;50.814;8.530;2023-07-29T00:19:18;17.90;99.90
30174;DHT22;16985;50.814;8.530;2023-07-29T00:21:45;17.90;99.90
30174;DHT22;16985;50.814;8.530;2023-07-29T00:24:11;17.90;99.90
30174;DHT22;16985;50.814;8.530;2023-07-29T00:26:37;17.90;99.90
30174;DHT22;16985;50.814;8.530;2023-07-29T00:29:03;17.90;99.90
30174;DHT22;16985;50.814;8.530;2023-07-29T00:31:29;17.90;99.90
30174;DHT22;16985;50.814;8.530;2023-07-29T00:33:56;17.90;99.90
30174;DHT22;16985;50.814;8.530;2023-07-29T00:36:23;18.00;99.90
30174;DHT22;16985;50.814;8.530;2023-07-29T00:38:50;17.90;99.90
30174;DHT22;16985;50.814;8.530;2023-07-29T00:41:16;18.00;99.90
30174;DHT22;16985;50.814;8.530;2023-07-29T00:43:42;18.00;99.90
30174;DHT22;16985;50.814;8.530;2023-07-29T00:46:09;18.10;99.90
30174;DHT22;16985;50.814;8.530;2023-07-29T00:48:35;18.00;99.90
30174;DHT22;16985;50.814;8.530;2023-07-29T00:51:02;18.00;99.90
30174;DHT22;16985;50.814;8.530;2023-07-29T00:53:28;18.00;99.90
30174;DHT22;16985;50.814;8.530;2023-07-29T00:55:53;18.00;99.90
30174;DHT22;16985;50.814;8.530;2023-07-29T00:58:19;18.00;99.90
30174;DHT22;16985;50.814;8.530;2023-07-29T01:00:46;18.00;99.90
30174;DHT22;16985;50.814;8.530;2023-07-29T01:03:13;18.00;99.90
30174;DHT22;16985;50.814;8.530;2023-07-29T01:06:13;18.00;99.90
30174;DHT22;16985;50.814;8.530;2023-07-29T01:09:02;17.90;99.90
30174;DHT22;16985;50.814;8.530;2023-07-29T01:16:57;18.00;99.90
30174;DHT22;16985;50.814;8.530;2023-07-29T01:19:59;17.90;99.90
30174;DHT22;16985;50.814;8.530;2023-07-29T01:22:34;18.00;99.90
30174;DHT22;16985;50.814;8.530;2023-07-29T01:25:01;18.00;99.90
30174;DHT22;16985;50.814;8.530;2023-07-29T01:27:28;17.90;99.90
30174;DHT22;16985;50.814;8.530;2023-07-29T01:29:55;18.00;99.90
30174;DHT22;16985;50.814;8.530;2023-07-29T01:37:55;17.90;99.90
30174;DHT22;16985;50.814;8.530;2023-07-29T01:40:23;18.00;99.90
30174;DHT22;16985;50.814;8.530;2023-07-29T01:42:52;17.90;99.90
30174;DHT22;16985;50.814;8.530;2023-07-29T01:45:18;17.90;99.90
30174;DHT22;16985;50.814;8.530;2023-07-29T01:47:45;18.00;99.90
30174;DHT22;16985;50.814;8.530;2023-07-29T01:50:11;17.90;99.90
30174;DHT22;16985;50.814;8.530;2023-07-29T01:52:37;17.90;99.90
30174;DHT22;16985;50.814;8.530;2023-07-29T01:55:03;18.00;99.90
30174;DHT22;16985;50.814;8.530;2023-07-29T01:57:29;18.00;99.90
30174;DHT22;16985;50.814;8.530;2023-07-29T01:59:55;18.00;99.90
30174;DHT22;16985;50.814;8.530;2023-07-29T02:02:21;18.00;99.90
30174;DHT22;16985;50.814;8.530;2023-07-29T02:04:46;18.00;99.90
30174;DHT22;16985;50.814;8.530;2023-07-29T02:07:17;18.00;99.90
30174;DHT22;16985;50.814;8.530;2023-07-29T02:09:44;18.00;99.90
30174;DHT22;16985;50.814;8.530;2023-07-29T02:12:10;18.00;99.90
30174;DHT22;16985;50.814;8.530;2023-07-29T02:14:39;18.00;99.90
30174;DHT22;16985;50.814;8.530;2023-07-29T02:17:05;18.00;99.90
30174;DHT22;16985;50.814;8.530;2023-07-29T02:19:31;18.00;99.90
30174;DHT22;16985;50.814;8.530;2023-07-29T02:21:57;18.00;99.90
30174;DHT22;16985;50.814;8.530;2023-07-29T02:24:23;18.00;99.90
30174;DHT22;16985;50.814;8.530;2023-07-29T02:26:49;18.00;99.90
30174;DHT22;16985;50.814;8.530;2023-07-29T02:29:14;18.00;99.90
30174;DHT22;16985;50.814;8.530;2023-07-29T02:31:40;18.00;99.90
30174;DHT22;16985;50.814;8.530;2023-07-29T02:34:06;18.00;99.90
30174;DHT22;16985;50.814;8.530;2023-07-29T02:36:32;18.00;99.90
30174;DHT22;16985;50.814;8.530;2023-07-29T02:38:58;18.00;99.90
30174;DHT22;16985;50.814;8.530;2023-07-29T02:41:24;18.00;99.90
30174;DHT22;16985;50.814;8.530;2023-07-29T02:43:50;18.00;99.90
30174;DHT22;16985;50.814;8.530;2023-07-29T02:46:17;18.00;99.90
30174;DHT22;16985;50.814;8.530;2023-07-29T02:48:44;18.00;99.90
30174;DHT22;16985;50.814;8.530;2023-07-29T02:51:10;18.00;99.90
30174;DHT22;16985;50.814;8.530;2023-07-29T02:53:36;18.00;99.90
30174;DHT22;16985;50.814;8.530;2023-07-29T02:56:03;18.00;99.90
30174;DHT22;16985;50.814;8.530;2023-07-29T02:58:29;17.90;99.90
30174;DHT22;16985;50.814;8.530;2023-07-29T03:01:05;18.00;99.90
30174;DHT22;16985;50.814;8.530;2023-07-29T03:03:32;18.00;99.90
30174;DHT22;16985;50.814;8.530;2023-07-29T03:06:03;18.00;99.90
30174;DHT22;16985;50.814;8.530;2023-07-29T03:08:30;18.00;99.90
30174;DHT22;16985;50.814;8.530;2023-07-29T03:10:56;18.00;99.90
30174;DHT22;16985;50.814;8.530;2023-07-29T03:13:23;18.00;99.90
30174;DHT22;16985;50.814;8.530;2023-07-29T03:15:49;18.00;99.90
30174;DHT22;16985;50.814;8.530;2023-07-29T03:18:15;18.00;99.90
30174;DHT22;16985;50.814;8.530;2023-07-29T03:20:41;18.00;99.90
30174;DHT22;16985;50.814;8.530;2023-07-29T03:23:07;18.00;99.90
30174;DHT22;16985;50.814;8.530;2023-07-29T03:25:33;18.00;99.90
30174;DHT22;16985;50.814;8.530;2023-07-29T03:27:59;18.00;99.90
30174;DHT22;16985;50.814;8.530;2023-07-29T03:30:25;18.00;99.90
30174;DHT22;16985;50.814;8.530;2023-07-29T03:32:52;18.00;99.90
30174;DHT22;16985;50.814;8.530;2023-07-29T03:35:18;18.00;99.90
30174;DHT22;16985;50.814;8.530;2023-07-29T03:37:44;18.00;99.90
30174;DHT22;16985;50.814;8.530;2023-07-29T03:40:10;18.00;99.90
30174;DHT22;16985;50.814;8.530;2023-07-29T03:42:36;18.00;99.90
30174;DHT22;16985;50.814;8.530;2023-07-29T03:45:02;18.00;99.90
30174;DHT22;16985;50.814;8.530;2023-07-29T03:47:28;18.00;99.90
30174;DHT22;16985;50.814;8.530;2023-07-29T03:49:55;18.00;99.90
30174;DHT22;16985;50.814;8.530;2023-07-29T03:52:22;18.00;99.90
30174;DHT22;16985;50.814;8.530;2023-07-29T03:54:48;18.00;99.90
30174;DHT22;16985;50.814;8.530;2023-07-29T03:57:14;17.90;99.90
30174;DHT22;16985;50.814;8.530;2023-07-29T03:59:40;18.00;99.90
30174;DHT22;16985;50.814;8.530;2023-07-29T04:02:06;18.00;99.90
30174;DHT22;16985;50.814;8.530;2023-07-29T04:04:31;18.00;99.90
30174;DHT22;16985;50.814;8.530;2023-07-29T04:06:57;18.10;99.90
30174;DHT22;16985;50.814;8.530;2023-07-29T04:09:23;18.10;99.90
30174;DHT22;16985;50.814;8.530;2023-07-29T04:11:49;18.00;99.90
30174;DHT22;16985;50.814;8.530;2023-07-29T04:14:16;18.00;99.90
30174;DHT22;16985;50.814;8.530;2023-07-29T04:16:42;18.00;99.90
30174;DHT22;16985;50.814;8.530;2023-07-29T04:19:08;18.00;99.90
30174;DHT22;16985;50.814;8.530;2023-07-29T04:21:34;18.00;99.90
30174;DHT22;16985;50.814;8.530;2023-07-29T04:24:00;18.00;99.90
30174;DHT22;16985;50.814;8.530;2023-07-29T04:26:26;18.00;99.90
30174;DHT22;16985;50.814;8.530;2023-07-29T04:28:52;18.00;99.90
30174;DHT22;16985;50.814;8.530;2023-07-29T04:31:18;18.10;99.90
30174;DHT22;16985;50.814;8.530;2023-07-29T04:33:43;18.00;99.90
30174;DHT22;16985;50.814;8.530;2023-07-29T04:36:10;18.10;99.90
30174;DHT22;16985;50.814;8.530;2023-07-29T04:38:37;18.10;99.90
30174;DHT22;16985;50.814;8.530;2023-07-29T04:41:03;18.10;99.90
30174;DHT22;16985;50.814;8.530;2023-07-29T04:43:32;18.10;99.90
30174;DHT22;16985;50.814;8.530;2023-07-29T04:45:58;18.10;99.90
30174;DHT22;16985;50.814;8.530;2023-07-29T04:48:24;18.10;99.90
30174;DHT22;16985;50.814;8.530;2023-07-29T04:50:50;18.10;99.90
30174;DHT22;16985;50.814;8.530;2023-07-29T04:53:16;18.10;99.90
30174;DHT22;16985;50.814;8.530;2023-07-29T04:55:42;18.10;99.90
30174;DHT22;16985;50.814;8.530;2023-07-29T04:58:09;18.20;99.90
30174;DHT22;16985;50.814;8.530;2023-07-29T05:00:35;18.10;99.90
30174;DHT22;16985;50.814;8.530;2023-07-29T05:03:02;18.20;99.90
30174;DHT22;16985;50.814;8.530;2023-07-29T05:05:28;18.20;99.90
30174;DHT22;16985;50.814;8.530;2023-07-29T05:07:55;18.20;99.90
30174;DHT22;16985;50.814;8.530;2023-07-29T05:10:20;18.20;99.90
30174;DHT22;16985;50.814;8.530;2023-07-29T05:12:46;18.20;99.90
30174;DHT22;16985;50.814;8.530;2023-07-29T05:15:12;18.20;99.90
30174;DHT22;16985;50.814;8.530;2023-07-29T05:17:38;18.20;99.90
30174;DHT22;16985;50.814;8.530;2023-07-29T05:20:04;18.20;99.90
30174;DHT22;16985;50.814;8.530;2023-07-29T05:22:31;18.30;99.90
30174;DHT22;16985;50.814;8.530;2023-07-29T05:24:57;18.30;99.90
30174;DHT22;16985;50.814;8.530;2023-07-29T05:27:22;18.30;99.90
30174;DHT22;16985;50.814;8.530;2023-07-29T05:29:48;18.30;99.90
30174;DHT22;16985;50.814;8.530;2023-07-29T05:32:14;18.30;99.90
30174;DHT22;16985;50.814;8.530;2023-07-29T05:34:41;18.40;99.90
30174;DHT22;16985;50.814;8.530;2023-07-29T05:37:07;18.40;99.90
30174;DHT22;16985;50.814;8.530;2023-07-29T05:39:33;18.40;99.90
30174;DHT22;16985;50.814;8.530;2023-07-29T05:41:59;18.40;99.90
30174;DHT22;16985;50.814;8.530;2023-07-29T05:44:28;18.50;99.90
30174;DHT22;16985;50.814;8.530;2023-07-29T05:46:55;18.50;99.90
30174;DHT22;16985;50.814;8.530;2023-07-29T05:49:22;18.50;99.90
30174;DHT22;16985;50.814;8.530;2023-07-29T05:51:48;18.50;99.90
30174;DHT22;16985;50.814;8.530;2023-07-29T05:54:17;18.50;99.90
30174;DHT22;16985;50.814;8.530;2023-07-29T05:56:43;18.50;99.90
30174;DHT22;16985;50.814;8.530;2023-07-29T05:59:09;18.60;99.90
30174;DHT22;16985;50.814;8.530;2023-07-29T06:01:35;18.60;99.90
30174;DHT22;16985;50.814;8.530;2023-07-29T06:04:00;18.60;99.90
30174;DHT22;16985;50.814;8.530;2023-07-29T06:06:26;18.60;99.90
30174;DHT22;16985;50.814;8.530;2023-07-29T06:08:52;18.60;99.90
30174;DHT22;16985;50.814;8.530;2023-07-29T06:11:18;18.70;99.90
30174;DHT22;16985;50.814;8.530;2023-07-29T06:13:45;18.70;99.90
30174;DHT22;16985;50.814;8.530;2023-07-29T06:16:13;18.70;99.90
30174;DHT22;16985;50.814;8.530;2023-07-29T06:18:40;18.80;99.90
30174;DHT22;16985;50.814;8.530;2023-07-29T06:21:06;18.80;99.90
30174;DHT22;16985;50.814;8.530;2023-07-29T06:23:34;18.80;99.90
30174;DHT22;16985;50.814;8.530;2023-07-29T06:26:00;18.90;99.90
30174;DHT22;16985;50.814;8.530;2023-07-29T06:28:26;18.90;99.90
30174;DHT22;16985;50.814;8.530;2023-07-29T06:30:52;18.90;99.90
30174;DHT22;16985;50.814;8.530;2023-07-29T06:33:18;19.00;99.90
30174;DHT22;16985;50.814;8.530;2023-07-29T06:35:44;19.00;99.90
30174;DHT22;16985;50.814;8.530;2023-07-29T06:38:10;19.00;99.90
30174;DHT22;16985;50.814;8.530;2023-07-29T06:40:35;19.00;99.90
30174;DHT22;16985;50.814;8.530;2023-07-29T06:43:01;19.00;99.90
30174;DHT22;16985;50.814;8.530;2023-07-29T06:45:27;19.00;99.90
30174;DHT22;16985;50.814;8.530;2023-07-29T06:47:53;19.10;99.90
30174;DHT22;16985;50.814;8.530;2023-07-29T06:50:19;19.00;99.90
30174;DHT22;16985;50.814;8.530;2023-07-29T06:52:45;19.00;99.90
30174;DHT22;16985;50.814;8.530;2023-07-29T06:55:11;19.10;99.90
30174;DHT22;16985;50.814;8.530;2023-07-29T06:57:37;19.10;99.90
30174;DHT22;16985;50.814;8.530;2023-07-29T07:00:03;19.10;99.90
30174;DHT22;16985;50.814;8.530;2023-07-29T07:02:29;19.10;99.90
30174;DHT22;16985;50.814;8.530;2023-07-29T07:04:55;19.00;99.90
30174;DHT22;16985;50.814;8.530;2023-07-29T07:07:21;19.00;99.90
30174;DHT22;16985;50.814;8.530;2023-07-29T07:09:47;19.00;99.90
30174;DHT22;16985;50.814;8.530;2023-07-29T07:12:13;19.00;99.90
30174;DHT22;16985;50.814;8.530;2023-07-29T07:14:38;19.00;99.90
30174;DHT22;16985;50.814;8.530;2023-07-29T07:17:05;19.10;99.90
30174;DHT22;16985;50.814;8.530;2023-07-29T07:19:30;19.10;99.90
30174;DHT22;16985;50.814;8.530;2023-07-29T07:21:56;19.10;99.90
30174;DHT22;16985;50.814;8.530;2023-07-29T07:24:22;19.10;99.90
30174;DHT22;16985;50.814;8.530;2023-07-29T07:26:48;19.10;99.90
30174;DHT22;16985;50.814;8.530;2023-07-29T07:29:14;19.10;99.90
30174;DHT22;16985;50.814;8.530;2023-07-29T07:31:40;19.10;99.90
30174;DHT22;16985;50.814;8.530;2023-07-29T07:34:06;19.10;99.90
30174;DHT22;16985;50.814;8.530;2023-07-29T07:36:31;19.20;99.90
30174;DHT22;16985;50.814;8.530;2023-07-29T07:38:57;19.20;99.90
30174;DHT22;16985;50.814;8.530;2023-07-29T07:41:23;19.20;99.90
30174;DHT22;16985;50.814;8.530;2023-07-29T07:43:49;19.20;99.90
30174;DHT22;16985;50.814;8.530;2023-07-29T07:46:15;19.20;99.90
30174;DHT22;16985;50.814;8.530;2023-07-29T07:48:41;19.20;99.90
30174;DHT22;16985;50.814;8.530;2023-07-29T07:51:13;19.20;99.90
30174;DHT22;16985;50.814;8.530;2023-07-29T07:53:39;19.30;99.90
30174;DHT22;16985;50.814;8.530;2023-07-29T07:56:06;19.30;99.90
30174;DHT22;16985;50.814;8.530;2023-07-29T07:58:32;19.30;99.90
30174;DHT22;16985;50.814;8.530;2023-07-29T08:01:06;19.30;99.90
30174;DHT22;16985;50.814;8.530;2023-07-29T08:03:33;19.40;99.90
30174;DHT22;16985;50.814;8.530;2023-07-29T08:05:59;19.50;99.90
30174;DHT22;16985;50.814;8.530;2023-07-29T08:08:26;19.40;99.90
30174;DHT22;16985;50.814;8.530;2023-07-29T08:10:53;19.50;99.90
30174;DHT22;16985;50.814;8.530;2023-07-29T08:13:20;19.60;99.90
30174;DHT22;16985;50.814;8.530;2023-07-29T08:15:50;19.70;99.90
30174;DHT22;16985;50.814;8.530;2023-07-29T08:18:16;19.70;99.90
30174;DHT22;16985;50.814;8.530;2023-07-29T08:20:59;19.80;99.90
30174;DHT22;16985;50.814;8.530;2023-07-29T08:23:30;19.80;99.90
30174;DHT22;16985;50.814;8.530;2023-07-29T08:25:58;19.90;99.90
30174;DHT22;16985;50.814;8.530;2023-07-29T08:28:29;20.00;99.90
30174;DHT22;16985;50.814;8.530;2023-07-29T08:30:56;20.00;99.90
30174;DHT22;16985;50.814;8.530;2023-07-29T08:33:22;20.10;99.90
30174;DHT22;16985;50.814;8.530;2023-07-29T08:35:47;20.20;99.90
30174;DHT22;16985;50.814;8.530;2023-07-29T08:38:13;20.20;99.90
30174;DHT22;16985;50.814;8.530;2023-07-29T08:40:45;20.30;99.90
30174;DHT22;16985;50.814;8.530;2023-07-29T08:43:17;20.40;99.90
30174;DHT22;16985;50.814;8.530;2023-07-29T08:45:45;20.40;99.90
30174;DHT22;16985;50.814;8.530;2023-07-29T08:48:13;20.40;99.90
30174;DHT22;16985;50.814;8.530;2023-07-29T08:50:42;20.50;99.90
30174;DHT22;16985;50.814;8.530;2023-07-29T08:53:10;20.50;99.90
30174;DHT22;16985;50.814;8.530;2023-07-29T08:55:36;20.50;99.90
30174;DHT22;16985;50.814;8.530;2023-07-29T08:58:02;20.50;99.90
30174;DHT22;16985;50.814;8.530;2023-07-29T09:00:29;20.60;99.90
30174;DHT22;16985;50.814;8.530;2023-07-29T09:02:55;20.60;99.90
30174;DHT22;16985;50.814;8.530;2023-07-29T09:05:22;20.60;99.90
30174;DHT22;16985;50.814;8.530;2023-07-29T09:07:50;20.70;99.90
30174;DHT22;16985;50.814;8.530;2023-07-29T09:10:21;20.80;99.90
30174;DHT22;16985;50.814;8.530;2023-07-29T09:12:49;20.80;99.90
30174;DHT22;16985;50.814;8.530;2023-07-29T09:15:27;20.90;99.90
30174;DHT22;16985;50.814;8.530;2023-07-29T09:17:56;21.00;99.90
30174;DHT22;16985;50.814;8.530;2023-07-29T09:20:29;21.00;99.90
30174;DHT22;16985;50.814;8.530;2023-07-29T09:22:57;21.10;99.90
30174;DHT22;16985;50.814;8.530;2023-07-29T09:25:26;21.20;99.90
30174;DHT22;16985;50.814;8.530;2023-07-29T09:27:52;21.30;99.90
30174;DHT22;16985;50.814;8.530;2023-07-29T09:30:24;21.40;99.90
30174;DHT22;16985;50.814;8.530;2023-07-29T09:32:55;21.40;99.90
30174;DHT22;16985;50.814;8.530;2023-07-29T09:35:22;21.50;99.90
30174;DHT22;16985;50.814;8.530;2023-07-29T09:37:48;21.50;99.90
30174;DHT22;16985;50.814;8.530;2023-07-29T09:40:14;21.50;99.90
30174;DHT22;16985;50.814;8.530;2023-07-29T09:42:50;21.60;99.90
30174;DHT22;16985;50.814;8.530;2023-07-29T09:45:26;21.60;99.90
30174;DHT22;16985;50.814;8.530;2023-07-29T09:47:53;21.70;99.90
30174;DHT22;16985;50.814;8.530;2023-07-29T09:50:23;21.70;99.90
30174;DHT22;16985;50.814;8.530;2023-07-29T09:52:51;21.80;99.90
30174;DHT22;16985;50.814;8.530;2023-07-29T09:55:22;21.90;99.90
30174;DHT22;16985;50.814;8.530;2023-07-29T09:57:58;21.90;99.90
30174;DHT22;16985;50.814;8.530;2023-07-29T10:00:28;22.10;99.90
30174;DHT22;16985;50.814;8.530;2023-07-29T10:02:55;22.20;99.80
30174;DHT22;16985;50.814;8.530;2023-07-29T10:05:25;22.20;98.40
30174;DHT22;16985;50.814;8.530;2023-07-29T10:07:51;22.30;97.30
30174;DHT22;16985;50.814;8.530;2023-07-29T10:10:17;22.30;96.50
30174;DHT22;16985;50.814;8.530;2023-07-29T10:12:43;22.30;96.20
30174;DHT22;16985;50.814;8.530;2023-07-29T10:15:10;22.30;96.10
30174;DHT22;16985;50.814;8.530;2023-07-29T10:17:37;22.30;96.30
30174;DHT22;16985;50.814;8.530;2023-07-29T10:20:05;22.30;96.40
30174;DHT22;16985;50.814;8.530;2023-07-29T10:22:41;22.30;96.50
30174;DHT22;16985;50.814;8.530;2023-07-29T10:25:22;22.30;96.20
30174;DHT22;16985;50.814;8.530;2023-07-29T10:27:52;22.30;95.90
30174;DHT22;16985;50.814;8.530;2023-07-29T10:30:19;22.30;95.50
30174;DHT22;16985;50.814;8.530;2023-07-29T10:32:45;22.30;95.30
30174;DHT22;16985;50.814;8.530;2023-07-29T10:35:13;22.40;95.40
30174;DHT22;16985;50.814;8.530;2023-07-29T10:37:39;22.40;95.40
30174;DHT22;16985;50.814;8.530;2023-07-29T10:40:07;22.40;95.50
30174;DHT22;16985;50.814;8.530;2023-07-29T10:42:58;22.40;95.50
30174;DHT22;16985;50.814;8.530;2023-07-29T10:45:37;22.30;95.70
30174;DHT22;16985;50.814;8.530;2023-07-29T10:48:10;22.30;95.30
30174;DHT22;16985;50.814;8.530;2023-07-29T10:50:37;22.20;95.30
30174;DHT22;16985;50.814;8.530;2023-07-29T10:53:04;22.20;95.80
30174;DHT22;16985;50.814;8.530;2023-07-29T10:55:35;22.10;96.10
30174;DHT22;16985;50.814;8.530;2023-07-29T10:58:17;22.00;96.60
30174;DHT22;16985;50.814;8.530;2023-07-29T11:00:44;21.90;96.60
30174;DHT22;16985;50.814;8.530;2023-07-29T11:03:12;21.80;96.20
30174;DHT22;16985;50.814;8.530;2023-07-29T11:05:48;21.80;95.70
30174;DHT22;16985;50.814;8.530;2023-07-29T11:08:30;21.60;95.10
30174;DHT22;16985;50.814;8.530;2023-07-29T11:11:07;21.60;96.10
30174;DHT22;16985;50.814;8.530;2023-07-29T11:13:36;21.50;96.60
30174;DHT22;16985;50.814;8.530;2023-07-29T11:16:03;21.40;97.50
30174;DHT22;16985;50.814;8.530;2023-07-29T11:18:34;21.30;98.70
30174;DHT22;16985;50.814;8.530;2023-07-29T11:21:04;21.20;99.20
30174;DHT22;16985;50.814;8.530;2023-07-29T11:23:32;21.10;99.90
30174;DHT22;16985;50.814;8.530;2023-07-29T11:25:59;21.00;99.90
30174;DHT22;16985;50.814;8.530;2023-07-29T11:28:26;20.90;99.90
30174;DHT22;16985;50.814;8.530;2023-07-29T11:30:52;20.80;99.90
30174;DHT22;16985;50.814;8.530;2023-07-29T11:33:24;20.70;99.90
30174;DHT22;16985;50.814;8.530;2023-07-29T11:35:54;20.70;99.90
30174;DHT22;16985;50.814;8.530;2023-07-29T11:38:21;20.70;99.90
30174;DHT22;16985;50.814;8.530;2023-07-29T11:40:55;20.70;99.90
30174;DHT22;16985;50.814;8.530;2023-07-29T11:43:25;20.70;99.90
30174;DHT22;16985;50.814;8.530;2023-07-29T11:45:52;20.80;99.90
30174;DHT22;16985;50.814;8.530;2023-07-29T11:48:26;20.80;99.90
30174;DHT22;16985;50.814;8.530;2023-07-29T11:50:53;20.90;99.90
30174;DHT22;16985;50.814;8.530;2023-07-29T11:53:20;20.90;99.90
30174;DHT22;16985;50.814;8.530;2023-07-29T11:55:51;20.90;99.90
30174;DHT22;16985;50.814;8.530;2023-07-29T11:58:18;21.00;99.90
30174;DHT22;16985;50.814;8.530;2023-07-29T12:00:44;21.20;99.90
30174;DHT22;16985;50.814;8.530;2023-07-29T12:03:13;21.30;99.90
30174;DHT22;16985;50.814;8.530;2023-07-29T12:05:40;21.40;99.90
30174;DHT22;16985;50.814;8.530;2023-07-29T12:08:08;21.50;99.90
30174;DHT22;16985;50.814;8.530;2023-07-29T12:10:34;21.60;99.90
30174;DHT22;16985;50.814;8.530;2023-07-29T12:13:02;21.70;99.90
30174;DHT22;16985;50.814;8.530;2023-07-29T12:15:29;21.90;99.90
30174;DHT22;16985;50.814;8.530;2023-07-29T12:17:56;22.00;99.90
30174;DHT22;16985;50.814;8.530;2023-07-29T12:20:23;22.20;99.90
30174;DHT22;16985;50.814;8.530;2023-07-29T12:22:57;22.30;99.90
30174;DHT22;16985;50.814;8.530;2023-07-29T12:25:26;22.50;99.30
30174;DHT22;16985;50.814;8.530;2023-07-29T12:27:52;22.70;98.10
30174;DHT22;16985;50.814;8.530;2023-07-29T12:30:22;22.80;97.10
30174;DHT22;16985;50.814;8.530;2023-07-29T12:32:48;23.00;95.30
30174;DHT22;16985;50.814;8.530;2023-07-29T12:35:14;23.10;93.90
30174;DHT22;16985;50.814;8.530;2023-07-29T12:37:40;23.10;92.80
30174;DHT22;16985;50.814;8.530;2023-07-29T12:40:29;23.20;92.70
30174;DHT22;16985;50.814;8.530;2023-07-29T12:42:55;23.30;93.20
30174;DHT22;16985;50.814;8.530;2023-07-29T12:45:21;23.40;93.00
30174;DHT22;16985;50.814;8.530;2023-07-29T12:47:54;23.50;92.70
30174;DHT22;16985;50.814;8.530;2023-07-29T12:50:19;23.60;92.70
30174;DHT22;16985;50.814;8.530;2023-07-29T12:52:46;23.70;92.80
30174;DHT22;16985;50.814;8.530;2023-07-29T12:55:12;23.90;92.80
30174;DHT22;16985;50.814;8.530;2023-07-29T12:57:41;24.00;92.60
30174;DHT22;16985;50.814;8.530;2023-07-29T13:00:09;24.10;90.60
30174;DHT22;16985;50.814;8.530;2023-07-29T13:02:35;24.20;90.10
30174;DHT22;16985;50.814;8.530;2023-07-29T13:05:01;24.30;89.00
30174;DHT22;16985;50.814;8.530;2023-07-29T13:07:27;24.40;88.50
30174;DHT22;16985;50.814;8.530;2023-07-29T13:09:52;24.50;87.60
30174;DHT22;16985;50.814;8.530;2023-07-29T13:12:18;24.60;87.40
30174;DHT22;16985;50.814;8.530;2023-07-29T13:14:44;24.70;86.70
30174;DHT22;16985;50.814;8.530;2023-07-29T13:17:10;24.80;87.00
30174;DHT22;16985;50.814;8.530;2023-07-29T13:19:36;24.90;86.90
30174;DHT22;16985;50.814;8.530;2023-07-29T13:22:02;24.90;85.40
30174;DHT22;16985;50.814;8.530;2023-07-29T13:24:28;24.80;82.90
30174;DHT22;16985;50.814;8.530;2023-07-29T13:26:53;24.80;82.20
30174;DHT22;16985;50.814;8.530;2023-07-29T13:29:19;24.80;82.50
30174;DHT22;16985;50.814;8.530;2023-07-29T13:31:45;24.80;82.00
30174;DHT22;16985;50.814;8.530;2023-07-29T13:34:11;24.90;81.50
30174;DHT22;16985;50.814;8.530;2023-07-29T13:36:36;24.90;80.60
30174;DHT22;16985;50.814;8.530;2023-07-29T13:39:02;25.00;80.80
30174;DHT22;16985;50.814;8.530;2023-07-29T13:41:28;25.00;80.40
30174;DHT22;16985;50.814;8.530;2023-07-29T13:43:54;25.10;80.10
30174;DHT22;16985;50.814;8.530;2023-07-29T13:46:20;25.20;79.50
30174;DHT22;16985;50.814;8.530;2023-07-29T13:48:46;25.20;78.40
30174;DHT22;16985;50.814;8.530;2023-07-29T13:51:12;25.20;77.80
30174;DHT22;16985;50.814;8.530;2023-07-29T13:53:38;25.20;78.90
30174;DHT22;16985;50.814;8.530;2023-07-29T13:56:04;25.30;79.20
30174;DHT22;16985;50.814;8.530;2023-07-29T13:58:30;25.30;79.40
30174;DHT22;16985;50.814;8.530;2023-07-29T14:00:56;25.40;79.50
30174;DHT22;16985;50.814;8.530;2023-07-29T14:03:21;25.30;79.80
30174;DHT22;16985;50.814;8.530;2023-07-29T14:05:47;25.20;79.20
30174;DHT22;16985;50.814;8.530;2023-07-29T14:08:13;25.20;78.30
30174;DHT22;16985;50.814;8.530;2023-07-29T14:10:39;25.20;78.40
30174;DHT22;16985;50.814;8.530;2023-07-29T14:13:05;25.20;78.40
30174;DHT22;16985;50.814;8.530;2023-07-29T14:15:30;25.30;79.10
30174;DHT22;16985;50.814;8.530;2023-07-29T14:17:58;25.40;79.70
30174;DHT22;16985;50.814;8.530;2023-07-29T14:20:23;25.50;79.50
30174;DHT22;16985;50.814;8.530;2023-07-29T14:22:49;25.60;79.10
30174;DHT22;16985;50.814;8.530;2023-07-29T14:25:15;25.60;78.30
30174;DHT22;16985;50.814;8.530;2023-07-29T14:27:41;25.60;77.30
30174;DHT22;16985;50.814;8.530;2023-07-29T14:30:07;25.60;77.40
30174;DHT22;16985;50.814;8.530;2023-07-29T14:32:33;25.60;77.30
30174;DHT22;16985;50.814;8.530;2023-07-29T14:34:59;25.60;78.10
30174;DHT22;16985;50.814;8.530;2023-07-29T14:37:30;25.60;78.50
30174;DHT22;16985;50.814;8.530;2023-07-29T14:39:57;25.60;79.10
30174;DHT22;16985;50.814;8.530;2023-07-29T14:42:24;25.60;79.10
30174;DHT22;16985;50.814;8.530;2023-07-29T14:44:50;25.40;78.50
30174;DHT22;16985;50.814;8.530;2023-07-29T14:47:15;25.40;79.10
30174;DHT22;16985;50.814;8.530;2023-07-29T14:49:41;25.30;79.10
30174;DHT22;16985;50.814;8.530;2023-07-29T14:52:07;25.20;78.10
30174;DHT22;16985;50.814;8.530;2023-07-29T14:54:33;25.10;78.40
30174;DHT22;16985;50.814;8.530;2023-07-29T14:56:59;24.90;78.60
30174;DHT22;16985;50.814;8.530;2023-07-29T14:59:25;24.80;78.00
30174;DHT22;16985;50.814;8.530;2023-07-29T15:01:50;24.70;78.50
30174;DHT22;16985;50.814;8.530;2023-07-29T15:04:16;24.60;78.20
30174;DHT22;16985;50.814;8.530;2023-07-29T15:06:42;24.50;78.70
30174;DHT22;16985;50.814;8.530;2023-07-29T15:09:08;24.50;78.80
30174;DHT22;16985;50.814;8.530;2023-07-29T15:11:34;24.40;79.50
30174;DHT22;16985;50.814;8.530;2023-07-29T15:14:00;24.30;79.40
30174;DHT22;16985;50.814;8.530;2023-07-29T15:16:28;24.30;79.40
30174;DHT22;16985;50.814;8.530;2023-07-29T15:18:54;24.20;79.50
30174;DHT22;16985;50.814;8.530;2023-07-29T15:21:22;24.20;80.00
30174;DHT22;16985;50.814;8.530;2023-07-29T15:23:51;24.00;79.40
30174;DHT22;16985;50.814;8.530;2023-07-29T15:26:17;24.00;79.40
30174;DHT22;16985;50.814;8.530;2023-07-29T15:28:43;24.00;79.80
30174;DHT22;16985;50.814;8.530;2023-07-29T15:31:09;24.00;80.10
30174;DHT22;16985;50.814;8.530;2023-07-29T15:33:36;24.00;80.50
30174;DHT22;16985;50.814;8.530;2023-07-29T15:36:02;23.90;80.30
30174;DHT22;16985;50.814;8.530;2023-07-29T15:38:28;23.90;80.30
30174;DHT22;16985;50.814;8.530;2023-07-29T15:40:53;23.90;80.10
30174;DHT22;16985;50.814;8.530;2023-07-29T15:43:19;23.90;80.20